sensor_id;sensor_type;location;lat;lon;timestamp;P1;durP1;ratioP1;P2;durP2;ratioP2
32535;SDS011;18974;50.838;4.636;2023-05-10T00:00:07;21.75;;;10.18;;
32535;SDS011;18974;50.838;4.636;2023-05-10T00:02:34;20.60;;;10.82;;
32535;SDS011;18974;50.838;4.636;2023-05-10T00:05:00;21.52;;;9.65;;
32535;SDS011;18974;50.838;4.636;2023-05-10T00:07:26;29.45;;;10.75;;
32535;SDS011;18974;50.838;4.636;2023-05-10T00:09:51;21.80;;;11.00;;
32535;SDS011;18974;50.838;4.636;2023-05-10T00:12:17;23.42;;;10.75;;
32535;SDS011;18974;50.838;4.636;2023-05-10T00:14:43;23.40;;;10.82;;
32535;SDS011;18974;50.838;4.636;2023-05-10T00:17:09;26.63;;;12.27;;
32535;SDS011;18974;50.838;4.636;2023-05-10T00:19:34;20.98;;;10.60;;
32535;SDS011;18974;50.838;4.636;2023-05-10T00:22:00;27.02;;;11.75;;
32535;SDS011;18974;50.838;4.636;2023-05-10T00:24:26;21.25;;;10.70;;
32535;SDS011;18974;50.838;4.636;2023-05-10T00:26:52;23.50;;;11.23;;
32535;SDS011;18974;50.838;4.636;2023-05-10T00:29:18;18.33;;;10.93;;
32535;SDS011;18974;50.838;4.636;2023-05-10T00:31:44;23.02;;;10.77;;
32535;SDS011;18974;50.838;4.636;2023-05-10T00:34:10;20.65;;;10.77;;
32535;SDS011;18974;50.838;4.636;2023-05-10T00:36:36;24.77;;;11.50;;
32535;SDS011;18974;50.838;4.636;2023-05-10T00:39:01;29.33;;;11.40;;
32535;SDS011;18974;50.838;4.636;2023-05-10T00:41:28;24.52;;;11.40;;
32535;SDS011;18974;50.838;4.636;2023-05-10T00:43:57;29.73;;;11.57;;
32535;SDS011;18974;50.838;4.636;2023-05-10T00:46:23;25.05;;;11.55;;
32535;SDS011;18974;50.838;4.636;2023-05-10T00:48:50;21.15;;;10.57;;
32535;SDS011;18974;50.838;4.636;2023-05-10T00:51:17;19.63;;;10.05;;
32535;SDS011;18974;50.838;4.636;2023-05-10T00:53:44;21.65;;;10.75;;
32535;SDS011;18974;50.838;4.636;2023-05-10T00:56:11;23.65;;;10.68;;
32535;SDS011;18974;50.838;4.636;2023-05-10T00:58:37;26.05;;;11.52;;
32535;SDS011;18974;50.838;4.636;2023-05-10T01:01:04;26.90;;;11.88;;
32535;SDS011;18974;50.838;4.636;2023-05-10T01:03:31;24.58;;;10.70;;
32535;SDS011;18974;50.838;4.636;2023-05-10T01:05:57;21.35;;;12.00;;
32535;SDS011;18974;50.838;4.636;2023-05-10T01:08:23;24.25;;;11.25;;
32535;SDS011;18974;50.838;4.636;2023-05-10T01:10:50;28.13;;;11.55;;
32535;SDS011;18974;50.838;4.636;2023-05-10T01:13:25;18.73;;;11.88;;
32535;SDS011;18974;50.838;4.636;2023-05-10T01:15:56;20.30;;;10.93;;
32535;SDS011;18974;50.838;4.636;2023-05-10T01:18:23;20.52;;;11.35;;
32535;SDS011;18974;50.838;4.636;2023-05-10T01:20:54;23.50;;;11.73;;
32535;SDS011;18974;50.838;4.636;2023-05-10T01:23:42;18.23;;;10.80;;
32535;SDS011;18974;50.838;4.636;2023-05-10T01:26:31;20.00;;;10.77;;
32535;SDS011;18974;50.838;4.636;2023-05-10T01:38:18;28.70;;;11.20;;
32535;SDS011;18974;50.838;4.636;2023-05-10T01:41:05;30.15;;;11.85;;
32535;SDS011;18974;50.838;4.636;2023-05-10T01:43:55;19.83;;;11.98;;
32535;SDS011;18974;50.838;4.636;2023-05-10T01:46:28;27.90;;;13.35;;
32535;SDS011;18974;50.838;4.636;2023-05-10T01:49:08;21.73;;;12.35;;
32535;SDS011;18974;50.838;4.636;2023-05-10T01:51:48;24.20;;;13.55;;
32535;SDS011;18974;50.838;4.636;2023-05-10T01:54:17;21.83;;;12.48;;
32535;SDS011;18974;50.838;4.636;2023-05-10T01:56:45;23.23;;;13.30;;
32535;SDS011;18974;50.838;4.636;2023-05-10T01:59:16;28.98;;;13.40;;
32535;SDS011;18974;50.838;4.636;2023-05-10T02:01:44;24.38;;;12.75;;
32535;SDS011;18974;50.838;4.636;2023-05-10T02:04:13;30.65;;;14.27;;
32535;SDS011;18974;50.838;4.636;2023-05-10T02:06:42;31.13;;;14.10;;
32535;SDS011;18974;50.838;4.636;2023-05-10T02:09:10;30.20;;;15.32;;
32535;SDS011;18974;50.838;4.636;2023-05-10T02:11:38;32.38;;;15.40;;
32535;SDS011;18974;50.838;4.636;2023-05-10T02:14:07;26.98;;;14.98;;
32535;SDS011;18974;50.838;4.636;2023-05-10T02:16:34;28.52;;;15.20;;
32535;SDS011;18974;50.838;4.636;2023-05-10T02:19:01;24.10;;;13.25;;
32535;SDS011;18974;50.838;4.636;2023-05-10T02:21:28;23.92;;;14.30;;
32535;SDS011;18974;50.838;4.636;2023-05-10T02:23:55;31.50;;;16.48;;
32535;SDS011;18974;50.838;4.636;2023-05-10T02:26:23;28.05;;;15.77;;
32535;SDS011;18974;50.838;4.636;2023-05-10T02:28:50;30.88;;;15.15;;
32535;SDS011;18974;50.838;4.636;2023-05-10T02:31:17;29.83;;;15.75;;
32535;SDS011;18974;50.838;4.636;2023-05-10T02:33:44;29.85;;;15.43;;
32535;SDS011;18974;50.838;4.636;2023-05-10T02:36:12;28.88;;;14.02;;
32535;SDS011;18974;50.838;4.636;2023-05-10T02:38:38;29.45;;;14.82;;
32535;SDS011;18974;50.838;4.636;2023-05-10T02:41:04;35.17;;;15.82;;
32535;SDS011;18974;50.838;4.636;2023-05-10T02:43:33;29.67;;;16.15;;
32535;SDS011;18974;50.838;4.636;2023-05-10T02:46:00;30.13;;;14.98;;
32535;SDS011;18974;50.838;4.636;2023-05-10T02:48:27;28.30;;;15.23;;
32535;SDS011;18974;50.838;4.636;2023-05-10T02:50:53;29.17;;;14.68;;
32535;SDS011;18974;50.838;4.636;2023-05-10T02:53:29;30.52;;;15.57;;
32535;SDS011;18974;50.838;4.636;2023-05-10T02:55:57;31.08;;;15.55;;
32535;SDS011;18974;50.838;4.636;2023-05-10T02:58:26;27.73;;;14.30;;
32535;SDS011;18974;50.838;4.636;2023-05-10T03:00:52;31.63;;;15.95;;
32535;SDS011;18974;50.838;4.636;2023-05-10T03:03:18;24.27;;;14.75;;
32535;SDS011;18974;50.838;4.636;2023-05-10T03:05:44;29.90;;;15.65;;
32535;SDS011;18974;50.838;4.636;2023-05-10T03:08:10;26.08;;;13.75;;
32535;SDS011;18974;50.838;4.636;2023-05-10T03:10:38;28.88;;;13.85;;
32535;SDS011;18974;50.838;4.636;2023-05-10T03:13:27;25.30;;;12.93;;
32535;SDS011;18974;50.838;4.636;2023-05-10T03:16:08;26.00;;;13.70;;
32535;SDS011;18974;50.838;4.636;2023-05-10T03:18:41;27.17;;;13.13;;
32535;SDS011;18974;50.838;4.636;2023-05-10T03:21:08;25.35;;;12.98;;
32535;SDS011;18974;50.838;4.636;2023-05-10T03:23:41;28.15;;;13.00;;
32535;SDS011;18974;50.838;4.636;2023-05-10T03:26:12;22.20;;;12.73;;
32535;SDS011;18974;50.838;4.636;2023-05-10T03:28:49;30.05;;;13.40;;
32535;SDS011;18974;50.838;4.636;2023-05-10T03:31:15;30.65;;;13.68;;
32535;SDS011;18974;50.838;4.636;2023-05-10T03:33:46;23.70;;;12.38;;
32535;SDS011;18974;50.838;4.636;2023-05-10T03:36:13;25.92;;;12.52;;
32535;SDS011;18974;50.838;4.636;2023-05-10T03:38:39;21.30;;;12.45;;
32535;SDS011;18974;50.838;4.636;2023-05-10T03:41:05;22.67;;;12.25;;
32535;SDS011;18974;50.838;4.636;2023-05-10T03:43:30;23.92;;;12.73;;
32535;SDS011;18974;50.838;4.636;2023-05-10T03:45:56;27.60;;;12.02;;
32535;SDS011;18974;50.838;4.636;2023-05-10T03:48:22;30.80;;;13.35;;
32535;SDS011;18974;50.838;4.636;2023-05-10T03:50:47;26.02;;;13.40;;
32535;SDS011;18974;50.838;4.636;2023-05-10T03:53:14;28.70;;;13.18;;
32535;SDS011;18974;50.838;4.636;2023-05-10T03:55:40;27.52;;;12.70;;
32535;SDS011;18974;50.838;4.636;2023-05-10T03:58:06;28.17;;;13.88;;
32535;SDS011;18974;50.838;4.636;2023-05-10T04:00:35;28.20;;;12.65;;
32535;SDS011;18974;50.838;4.636;2023-05-10T04:03:01;24.70;;;12.60;;
32535;SDS011;18974;50.838;4.636;2023-05-10T04:05:26;27.00;;;13.32;;
32535;SDS011;18974;50.838;4.636;2023-05-10T04:07:52;24.65;;;12.52;;
32535;SDS011;18974;50.838;4.636;2023-05-10T04:10:18;23.17;;;11.38;;
32535;SDS011;18974;50.838;4.636;2023-05-10T04:12:44;26.70;;;12.27;;
32535;SDS011;18974;50.838;4.636;2023-05-10T04:15:09;22.27;;;11.50;;
32535;SDS011;18974;50.838;4.636;2023-05-10T04:17:35;21.42;;;11.75;;
32535;SDS011;18974;50.838;4.636;2023-05-10T04:20:01;19.95;;;10.93;;
32535;SDS011;18974;50.838;4.636;2023-05-10T04:22:26;22.30;;;11.35;;
32535;SDS011;18974;50.838;4.636;2023-05-10T04:24:54;20.88;;;10.90;;
32535;SDS011;18974;50.838;4.636;2023-05-10T04:27:19;28.45;;;12.95;;
32535;SDS011;18974;50.838;4.636;2023-05-10T04:29:45;31.88;;;13.77;;
32535;SDS011;18974;50.838;4.636;2023-05-10T04:32:11;34.53;;;16.73;;
32535;SDS011;18974;50.838;4.636;2023-05-10T04:34:36;40.75;;;16.00;;
32535;SDS011;18974;50.838;4.636;2023-05-10T04:37:02;39.60;;;18.75;;
32535;SDS011;18974;50.838;4.636;2023-05-10T04:39:28;40.95;;;18.42;;
32535;SDS011;18974;50.838;4.636;2023-05-10T04:41:54;45.75;;;20.60;;
32535;SDS011;18974;50.838;4.636;2023-05-10T04:44:19;53.45;;;20.27;;
32535;SDS011;18974;50.838;4.636;2023-05-10T04:46:45;47.22;;;19.95;;
32535;SDS011;18974;50.838;4.636;2023-05-10T04:49:11;44.28;;;20.08;;
32535;SDS011;18974;50.838;4.636;2023-05-10T04:51:36;43.83;;;19.83;;
32535;SDS011;18974;50.838;4.636;2023-05-10T04:54:02;53.40;;;22.70;;
32535;SDS011;18974;50.838;4.636;2023-05-10T04:56:28;52.85;;;21.80;;
32535;SDS011;18974;50.838;4.636;2023-05-10T04:58:54;52.95;;;23.83;;
32535;SDS011;18974;50.838;4.636;2023-05-10T05:01:19;52.28;;;22.73;;
32535;SDS011;18974;50.838;4.636;2023-05-10T05:03:45;52.28;;;21.92;;
32535;SDS011;18974;50.838;4.636;2023-05-10T05:06:11;57.67;;;23.02;;
32535;SDS011;18974;50.838;4.636;2023-05-10T05:08:36;54.60;;;23.23;;
32535;SDS011;18974;50.838;4.636;2023-05-10T05:11:02;51.70;;;22.77;;
32535;SDS011;18974;50.838;4.636;2023-05-10T05:13:28;59.30;;;24.15;;
32535;SDS011;18974;50.838;4.636;2023-05-10T05:15:54;59.63;;;25.60;;
32535;SDS011;18974;50.838;4.636;2023-05-10T05:18:19;62.38;;;27.05;;
32535;SDS011;18974;50.838;4.636;2023-05-10T05:20:45;60.60;;;23.35;;
32535;SDS011;18974;50.838;4.636;2023-05-10T05:23:11;60.03;;;24.13;;
32535;SDS011;18974;50.838;4.636;2023-05-10T05:25:37;58.97;;;26.80;;
32535;SDS011;18974;50.838;4.636;2023-05-10T05:28:02;58.40;;;24.88;;
32535;SDS011;18974;50.838;4.636;2023-05-10T05:30:28;65.18;;;26.77;;
32535;SDS011;18974;50.838;4.636;2023-05-10T05:32:54;65.40;;;26.45;;
32535;SDS011;18974;50.838;4.636;2023-05-10T05:35:19;60.53;;;24.85;;
32535;SDS011;18974;50.838;4.636;2023-05-10T05:37:45;58.78;;;25.27;;
32535;SDS011;18974;50.838;4.636;2023-05-10T05:40:14;68.88;;;26.38;;
32535;SDS011;18974;50.838;4.636;2023-05-10T05:42:40;67.65;;;26.08;;
32535;SDS011;18974;50.838;4.636;2023-05-10T05:45:06;63.30;;;25.58;;
32535;SDS011;18974;50.838;4.636;2023-05-10T05:47:33;56.45;;;24.70;;
32535;SDS011;18974;50.838;4.636;2023-05-10T05:49:59;59.88;;;25.73;;
32535;SDS011;18974;50.838;4.636;2023-05-10T05:52:25;57.78;;;25.15;;
32535;SDS011;18974;50.838;4.636;2023-05-10T05:54:51;58.47;;;25.02;;
32535;SDS011;18974;50.838;4.636;2023-05-10T05:57:16;67.65;;;26.27;;
32535;SDS011;18974;50.838;4.636;2023-05-10T05:59:42;55.22;;;24.65;;
32535;SDS011;18974;50.838;4.636;2023-05-10T06:02:09;58.33;;;25.65;;
32535;SDS011;18974;50.838;4.636;2023-05-10T06:04:35;56.83;;;25.48;;
32535;SDS011;18974;50.838;4.636;2023-05-10T06:07:01;54.10;;;23.75;;
32535;SDS011;18974;50.838;4.636;2023-05-10T06:09:26;55.08;;;25.05;;
32535;SDS011;18974;50.838;4.636;2023-05-10T06:11:52;56.95;;;24.83;;
32535;SDS011;18974;50.838;4.636;2023-05-10T06:14:20;54.25;;;23.88;;
32535;SDS011;18974;50.838;4.636;2023-05-10T06:16:46;58.08;;;25.08;;
32535;SDS011;18974;50.838;4.636;2023-05-10T06:19:12;50.15;;;25.70;;
32535;SDS011;18974;50.838;4.636;2023-05-10T06:21:37;45.70;;;22.15;;
32535;SDS011;18974;50.838;4.636;2023-05-10T06:24:03;43.05;;;19.10;;
32535;SDS011;18974;50.838;4.636;2023-05-10T06:26:31;26.45;;;13.18;;
32535;SDS011;18974;50.838;4.636;2023-05-10T06:28:57;15.77;;;8.68;;
32535;SDS011;18974;50.838;4.636;2023-05-10T06:31:23;11.88;;;7.63;;
32535;SDS011;18974;50.838;4.636;2023-05-10T06:33:49;14.02;;;7.72;;
32535;SDS011;18974;50.838;4.636;2023-05-10T06:36:14;14.48;;;7.93;;
32535;SDS011;18974;50.838;4.636;2023-05-10T06:38:40;15.50;;;8.43;;
32535;SDS011;18974;50.838;4.636;2023-05-10T06:41:06;11.73;;;6.85;;
32535;SDS011;18974;50.838;4.636;2023-05-10T06:43:32;12.38;;;6.35;;
32535;SDS011;18974;50.838;4.636;2023-05-10T06:45:57;10.32;;;4.75;;
32535;SDS011;18974;50.838;4.636;2023-05-10T06:48:23;13.68;;;4.00;;
32535;SDS011;18974;50.838;4.636;2023-05-10T06:50:49;5.13;;;2.72;;
32535;SDS011;18974;50.838;4.636;2023-05-10T06:53:14;5.78;;;2.85;;
32535;SDS011;18974;50.838;4.636;2023-05-10T06:55:40;14.43;;;3.50;;
32535;SDS011;18974;50.838;4.636;2023-05-10T06:58:06;6.53;;;3.78;;
32535;SDS011;18974;50.838;4.636;2023-05-10T07:00:32;9.13;;;4.30;;
32535;SDS011;18974;50.838;4.636;2023-05-10T07:02:57;7.40;;;4.55;;
32535;SDS011;18974;50.838;4.636;2023-05-10T07:05:23;8.63;;;4.85;;
32535;SDS011;18974;50.838;4.636;2023-05-10T07:07:49;7.72;;;4.00;;
32535;SDS011;18974;50.838;4.636;2023-05-10T07:10:15;5.28;;;4.07;;
32535;SDS011;18974;50.838;4.636;2023-05-10T07:12:40;7.68;;;3.90;;
32535;SDS011;18974;50.838;4.636;2023-05-10T07:15:06;9.45;;;4.57;;
32535;SDS011;18974;50.838;4.636;2023-05-10T07:17:33;6.72;;;3.92;;
32535;SDS011;18974;50.838;4.636;2023-05-10T07:19:59;9.27;;;3.60;;
32535;SDS011;18974;50.838;4.636;2023-05-10T07:22:25;6.85;;;3.42;;
32535;SDS011;18974;50.838;4.636;2023-05-10T07:24:51;4.25;;;2.90;;
32535;SDS011;18974;50.838;4.636;2023-05-10T07:27:16;7.35;;;2.47;;
32535;SDS011;18974;50.838;4.636;2023-05-10T07:29:42;5.47;;;2.95;;
32535;SDS011;18974;50.838;4.636;2023-05-10T07:32:07;6.75;;;2.65;;
32535;SDS011;18974;50.838;4.636;2023-05-10T07:34:33;5.43;;;2.40;;
32535;SDS011;18974;50.838;4.636;2023-05-10T07:36:59;5.35;;;2.90;;
32535;SDS011;18974;50.838;4.636;2023-05-10T07:39:25;6.30;;;4.03;;
32535;SDS011;18974;50.838;4.636;2023-05-10T07:41:52;8.93;;;4.35;;
32535;SDS011;18974;50.838;4.636;2023-05-10T07:44:18;9.70;;;4.30;;
32535;SDS011;18974;50.838;4.636;2023-05-10T07:46:45;9.85;;;5.38;;
32535;SDS011;18974;50.838;4.636;2023-05-10T07:49:11;9.88;;;4.85;;
32535;SDS011;18974;50.838;4.636;2023-05-10T07:51:36;12.75;;;6.22;;
32535;SDS011;18974;50.838;4.636;2023-05-10T07:54:02;14.65;;;7.03;;
32535;SDS011;18974;50.838;4.636;2023-05-10T07:56:29;11.95;;;6.72;;
32535;SDS011;18974;50.838;4.636;2023-05-10T07:58:56;12.10;;;6.97;;
32535;SDS011;18974;50.838;4.636;2023-05-10T08:01:26;14.95;;;8.00;;
32535;SDS011;18974;50.838;4.636;2023-05-10T08:03:54;14.50;;;7.72;;
32535;SDS011;18974;50.838;4.636;2023-05-10T08:06:20;17.35;;;7.95;;
32535;SDS011;18974;50.838;4.636;2023-05-10T08:08:46;14.75;;;8.75;;
32535;SDS011;18974;50.838;4.636;2023-05-10T08:11:15;15.75;;;8.35;;
32535;SDS011;18974;50.838;4.636;2023-05-10T08:13:42;18.67;;;8.23;;
32535;SDS011;18974;50.838;4.636;2023-05-10T08:16:08;21.92;;;9.02;;
32535;SDS011;18974;50.838;4.636;2023-05-10T08:18:34;18.17;;;8.65;;
32535;SDS011;18974;50.838;4.636;2023-05-10T08:21:00;18.65;;;8.75;;
32535;SDS011;18974;50.838;4.636;2023-05-10T08:23:25;16.95;;;8.57;;
32535;SDS011;18974;50.838;4.636;2023-05-10T08:25:51;17.90;;;8.80;;
32535;SDS011;18974;50.838;4.636;2023-05-10T08:28:17;13.90;;;8.73;;
32535;SDS011;18974;50.838;4.636;2023-05-10T08:30:42;16.85;;;8.57;;
32535;SDS011;18974;50.838;4.636;2023-05-10T08:33:08;16.02;;;8.20;;
32535;SDS011;18974;50.838;4.636;2023-05-10T08:35:34;14.13;;;8.38;;
32535;SDS011;18974;50.838;4.636;2023-05-10T08:38:00;16.05;;;8.63;;
32535;SDS011;18974;50.838;4.636;2023-05-10T08:40:26;14.57;;;7.47;;
32535;SDS011;18974;50.838;4.636;2023-05-10T08:43:04;14.32;;;7.60;;
32535;SDS011;18974;50.838;4.636;2023-05-10T08:45:38;14.02;;;7.85;;
32535;SDS011;18974;50.838;4.636;2023-05-10T08:48:06;12.38;;;6.93;;
32535;SDS011;18974;50.838;4.636;2023-05-10T08:50:36;12.35;;;6.35;;
32535;SDS011;18974;50.838;4.636;2023-05-10T08:53:05;10.27;;;6.85;;
32535;SDS011;18974;50.838;4.636;2023-05-10T08:55:34;8.77;;;5.90;;
32535;SDS011;18974;50.838;4.636;2023-05-10T08:58:02;9.88;;;5.78;;
32535;SDS011;18974;50.838;4.636;2023-05-10T09:00:29;8.98;;;5.22;;
32535;SDS011;18974;50.838;4.636;2023-05-10T09:02:55;11.43;;;5.93;;
32535;SDS011;18974;50.838;4.636;2023-05-10T09:05:22;8.93;;;4.68;;
32535;SDS011;18974;50.838;4.636;2023-05-10T09:07:48;8.32;;;5.07;;
32535;SDS011;18974;50.838;4.636;2023-05-10T09:10:14;7.97;;;4.85;;
32535;SDS011;18974;50.838;4.636;2023-05-10T09:12:40;9.65;;;5.85;;
32535;SDS011;18974;50.838;4.636;2023-05-10T09:15:06;10.02;;;5.40;;
32535;SDS011;18974;50.838;4.636;2023-05-10T09:17:32;6.60;;;4.13;;
32535;SDS011;18974;50.838;4.636;2023-05-10T09:19:59;7.72;;;4.13;;
32535;SDS011;18974;50.838;4.636;2023-05-10T09:22:29;9.00;;;4.50;;
32535;SDS011;18974;50.838;4.636;2023-05-10T09:27:36;6.88;;;3.83;;
32535;SDS011;18974;50.838;4.636;2023-05-10T09:30:02;4.30;;;3.50;;
32535;SDS011;18974;50.838;4.636;2023-05-10T09:35:06;5.75;;;3.10;;
32535;SDS011;18974;50.838;4.636;2023-05-10T09:37:32;2.97;;;2.17;;
32535;SDS011;18974;50.838;4.636;2023-05-10T09:39:58;4.13;;;2.40;;
32535;SDS011;18974;50.838;4.636;2023-05-10T09:42:24;3.63;;;2.30;;
32535;SDS011;18974;50.838;4.636;2023-05-10T09:44:50;4.43;;;2.40;;
32535;SDS011;18974;50.838;4.636;2023-05-10T09:47:19;3.58;;;2.53;;
32535;SDS011;18974;50.838;4.636;2023-05-10T09:49:48;5.32;;;2.80;;
32535;SDS011;18974;50.838;4.636;2023-05-10T09:52:16;9.40;;;4.75;;
32535;SDS011;18974;50.838;4.636;2023-05-10T09:54:45;4.07;;;2.55;;
32535;SDS011;18974;50.838;4.636;2023-05-10T09:57:21;7.00;;;3.38;;
32535;SDS011;18974;50.838;4.636;2023-05-10T09:59:47;5.63;;;3.95;;
32535;SDS011;18974;50.838;4.636;2023-05-10T10:02:14;4.93;;;2.88;;
32535;SDS011;18974;50.838;4.636;2023-05-10T10:04:40;4.10;;;2.33;;
32535;SDS011;18974;50.838;4.636;2023-05-10T10:07:06;3.92;;;2.80;;
32535;SDS011;18974;50.838;4.636;2023-05-10T10:09:32;5.25;;;2.35;;
32535;SDS011;18974;50.838;4.636;2023-05-10T10:12:00;3.47;;;2.67;;
32535;SDS011;18974;50.838;4.636;2023-05-10T10:14:27;4.90;;;2.67;;
32535;SDS011;18974;50.838;4.636;2023-05-10T10:16:53;3.33;;;2.40;;
32535;SDS011;18974;50.838;4.636;2023-05-10T10:19:19;5.00;;;2.80;;
32535;SDS011;18974;50.838;4.636;2023-05-10T10:21:46;3.53;;;2.90;;
32535;SDS011;18974;50.838;4.636;2023-05-10T10:24:14;3.75;;;2.83;;
32535;SDS011;18974;50.838;4.636;2023-05-10T10:26:41;4.05;;;2.90;;
32535;SDS011;18974;50.838;4.636;2023-05-10T10:29:23;4.28;;;2.25;;
32535;SDS011;18974;50.838;4.636;2023-05-10T10:32:03;4.30;;;2.20;;
32535;SDS011;18974;50.838;4.636;2023-05-10T10:34:43;3.05;;;2.17;;
32535;SDS011;18974;50.838;4.636;2023-05-10T10:37:09;2.30;;;1.77;;
32535;SDS011;18974;50.838;4.636;2023-05-10T10:39:35;2.70;;;1.73;;
32535;SDS011;18974;50.838;4.636;2023-05-10T10:42:01;2.30;;;1.70;;
32535;SDS011;18974;50.838;4.636;2023-05-10T10:49:50;3.60;;;1.70;;
32535;SDS011;18974;50.838;4.636;2023-05-10T10:52:23;2.92;;;1.80;;
32535;SDS011;18974;50.838;4.636;2023-05-10T10:55:05;2.30;;;1.70;;
32535;SDS011;18974;50.838;4.636;2023-05-10T10:57:53;3.90;;;2.03;;
32535;SDS011;18974;50.838;4.636;2023-05-10T11:00:33;1.52;;;1.05;;
32535;SDS011;18974;50.838;4.636;2023-05-10T11:05:37;1.20;;;1.10;;
32535;SDS011;18974;50.838;4.636;2023-05-10T11:08:17;1.23;;;1.10;;
32535;SDS011;18974;50.838;4.636;2023-05-10T11:13:32;1.75;;;1.20;;
32535;SDS011;18974;50.838;4.636;2023-05-10T11:15:58;3.47;;;1.25;;
32535;SDS011;18974;50.838;4.636;2023-05-10T11:18:36;2.03;;;1.02;;
32535;SDS011;18974;50.838;4.636;2023-05-10T11:21:02;1.98;;;1.13;;
32535;SDS011;18974;50.838;4.636;2023-05-10T11:23:30;1.65;;;1.10;;
32535;SDS011;18974;50.838;4.636;2023-05-10T11:25:56;1.20;;;1.05;;
32535;SDS011;18974;50.838;4.636;2023-05-10T11:28:22;1.20;;;1.10;;
32535;SDS011;18974;50.838;4.636;2023-05-10T11:30:48;1.52;;;1.42;;
32535;SDS011;18974;50.838;4.636;2023-05-10T11:33:17;2.28;;;1.40;;
32535;SDS011;18974;50.838;4.636;2023-05-10T11:35:44;2.30;;;2.10;;
32535;SDS011;18974;50.838;4.636;2023-05-10T11:38:10;2.13;;;1.48;;
32535;SDS011;18974;50.838;4.636;2023-05-10T11:40:37;1.80;;;1.60;;
32535;SDS011;18974;50.838;4.636;2023-05-10T11:43:04;1.73;;;1.40;;
32535;SDS011;18974;50.838;4.636;2023-05-10T11:45:34;2.20;;;1.77;;
32535;SDS011;18974;50.838;4.636;2023-05-10T11:48:01;2.13;;;1.80;;
32535;SDS011;18974;50.838;4.636;2023-05-10T11:50:27;4.15;;;2.17;;
32535;SDS011;18974;50.838;4.636;2023-05-10T11:52:56;2.15;;;1.75;;
32535;SDS011;18974;50.838;4.636;2023-05-10T11:55:23;1.42;;;1.33;;
32535;SDS011;18974;50.838;4.636;2023-05-10T11:57:59;2.53;;;1.75;;
32535;SDS011;18974;50.838;4.636;2023-05-10T12:00:26;2.85;;;1.90;;
32535;SDS011;18974;50.838;4.636;2023-05-10T12:02:52;2.65;;;1.80;;
32535;SDS011;18974;50.838;4.636;2023-05-10T12:05:18;3.65;;;1.83;;
32535;SDS011;18974;50.838;4.636;2023-05-10T12:07:43;2.60;;;2.25;;
32535;SDS011;18974;50.838;4.636;2023-05-10T12:12:39;2.92;;;2.30;;
32535;SDS011;18974;50.838;4.636;2023-05-10T12:15:17;2.28;;;2.08;;
32535;SDS011;18974;50.838;4.636;2023-05-10T12:17:45;6.13;;;2.35;;
32535;SDS011;18974;50.838;4.636;2023-05-10T12:22:47;2.20;;;2.00;;
32535;SDS011;18974;50.838;4.636;2023-05-10T12:25:20;6.43;;;2.08;;
32535;SDS011;18974;50.838;4.636;2023-05-10T12:27:54;3.90;;;2.08;;
32535;SDS011;18974;50.838;4.636;2023-05-10T12:30:27;2.85;;;2.00;;
32535;SDS011;18974;50.838;4.636;2023-05-10T12:32:58;2.25;;;2.03;;
32535;SDS011;18974;50.838;4.636;2023-05-10T12:35:32;3.33;;;1.73;;
32535;SDS011;18974;50.838;4.636;2023-05-10T12:37:58;1.98;;;1.50;;
32535;SDS011;18974;50.838;4.636;2023-05-10T12:40:25;1.63;;;1.52;;
32535;SDS011;18974;50.838;4.636;2023-05-10T12:42:52;3.60;;;1.73;;
32535;SDS011;18974;50.838;4.636;2023-05-10T12:45:17;2.75;;;2.05;;
32535;SDS011;18974;50.838;4.636;2023-05-10T12:47:43;1.42;;;1.33;;
32535;SDS011;18974;50.838;4.636;2023-05-10T12:50:09;1.33;;;1.23;;
32535;SDS011;18974;50.838;4.636;2023-05-10T12:52:35;4.70;;;1.60;;
32535;SDS011;18974;50.838;4.636;2023-05-10T12:55:02;2.45;;;2.00;;
32535;SDS011;18974;50.838;4.636;2023-05-10T12:57:28;1.70;;;1.60;;
32535;SDS011;18974;50.838;4.636;2023-05-10T12:59:54;5.22;;;1.70;;
32535;SDS011;18974;50.838;4.636;2023-05-10T13:02:20;4.13;;;1.98;;
32535;SDS011;18974;50.838;4.636;2023-05-10T13:04:47;2.03;;;1.63;;
32535;SDS011;18974;50.838;4.636;2023-05-10T13:07:13;1.98;;;1.77;;
32535;SDS011;18974;50.838;4.636;2023-05-10T13:09:39;1.40;;;1.30;;
32535;SDS011;18974;50.838;4.636;2023-05-10T13:12:05;3.00;;;1.80;;
32535;SDS011;18974;50.838;4.636;2023-05-10T13:14:31;2.00;;;1.70;;
32535;SDS011;18974;50.838;4.636;2023-05-10T13:16:56;2.13;;;1.92;;
32535;SDS011;18974;50.838;4.636;2023-05-10T13:19:22;2.72;;;1.75;;
32535;SDS011;18974;50.838;4.636;2023-05-10T13:21:48;3.30;;;2.38;;
32535;SDS011;18974;50.838;4.636;2023-05-10T13:24:14;1.77;;;1.58;;
32535;SDS011;18974;50.838;4.636;2023-05-10T13:26:40;3.35;;;1.83;;
32535;SDS011;18974;50.838;4.636;2023-05-10T13:29:06;2.67;;;1.80;;
32535;SDS011;18974;50.838;4.636;2023-05-10T13:31:33;3.97;;;2.28;;
32535;SDS011;18974;50.838;4.636;2023-05-10T13:33:59;2.50;;;1.92;;
32535;SDS011;18974;50.838;4.636;2023-05-10T13:36:25;2.55;;;1.83;;
32535;SDS011;18974;50.838;4.636;2023-05-10T13:38:51;4.95;;;2.22;;
32535;SDS011;18974;50.838;4.636;2023-05-10T13:41:17;3.10;;;2.28;;
32535;SDS011;18974;50.838;4.636;2023-05-10T13:43:42;2.50;;;2.30;;
32535;SDS011;18974;50.838;4.636;2023-05-10T13:46:08;3.40;;;1.98;;
32535;SDS011;18974;50.838;4.636;2023-05-10T13:48:34;1.95;;;1.77;;
32535;SDS011;18974;50.838;4.636;2023-05-10T13:51:01;2.55;;;1.90;;
32535;SDS011;18974;50.838;4.636;2023-05-10T13:53:27;3.55;;;2.20;;
32535;SDS011;18974;50.838;4.636;2023-05-10T13:55:53;3.97;;;1.80;;
32535;SDS011;18974;50.838;4.636;2023-05-10T13:58:19;3.15;;;2.10;;
32535;SDS011;18974;50.838;4.636;2023-05-10T14:00:45;2.17;;;1.98;;
32535;SDS011;18974;50.838;4.636;2023-05-10T14:03:10;3.53;;;2.05;;
32535;SDS011;18974;50.838;4.636;2023-05-10T14:05:36;2.60;;;2.03;;
32535;SDS011;18974;50.838;4.636;2023-05-10T14:08:02;3.25;;;2.20;;
32535;SDS011;18974;50.838;4.636;2023-05-10T14:10:28;2.70;;;2.10;;
32535;SDS011;18974;50.838;4.636;2023-05-10T14:12:55;4.40;;;2.35;;
32535;SDS011;18974;50.838;4.636;2023-05-10T14:15:20;4.30;;;2.30;;
32535;SDS011;18974;50.838;4.636;2023-05-10T14:17:46;3.42;;;2.50;;
32535;SDS011;18974;50.838;4.636;2023-05-10T14:20:12;3.78;;;2.30;;
32535;SDS011;18974;50.838;4.636;2023-05-10T14:22:37;3.97;;;2.97;;
32535;SDS011;18974;50.838;4.636;2023-05-10T14:25:03;4.20;;;3.05;;
32535;SDS011;18974;50.838;4.636;2023-05-10T14:27:29;6.13;;;3.17;;
32535;SDS011;18974;50.838;4.636;2023-05-10T14:29:55;5.40;;;3.13;;
32535;SDS011;18974;50.838;4.636;2023-05-10T14:32:21;7.30;;;2.95;;
32535;SDS011;18974;50.838;4.636;2023-05-10T14:34:46;3.75;;;2.88;;
32535;SDS011;18974;50.838;4.636;2023-05-10T14:37:13;8.45;;;3.20;;
32535;SDS011;18974;50.838;4.636;2023-05-10T14:39:39;4.50;;;3.40;;
32535;SDS011;18974;50.838;4.636;2023-05-10T14:42:07;4.25;;;2.90;;
32535;SDS011;18974;50.838;4.636;2023-05-10T14:44:33;3.38;;;2.60;;
32535;SDS011;18974;50.838;4.636;2023-05-10T14:46:59;4.32;;;3.30;;
32535;SDS011;18974;50.838;4.636;2023-05-10T14:49:24;5.43;;;3.42;;
32535;SDS011;18974;50.838;4.636;2023-05-10T14:51:51;6.10;;;3.72;;
32535;SDS011;18974;50.838;4.636;2023-05-10T14:54:17;4.32;;;2.90;;
32535;SDS011;18974;50.838;4.636;2023-05-10T14:56:42;4.57;;;3.08;;
32535;SDS011;18974;50.838;4.636;2023-05-10T14:59:08;5.80;;;3.58;;
32535;SDS011;18974;50.838;4.636;2023-05-10T15:01:34;6.88;;;3.78;;
32535;SDS011;18974;50.838;4.636;2023-05-10T15:04:02;4.70;;;3.85;;
32535;SDS011;18974;50.838;4.636;2023-05-10T15:06:32;4.45;;;3.35;;